createdAt,value
2018-11-02T00:02:13.101Z,100633.48
2018-11-02T00:04:41.204Z,100632.49
2018-11-02T00:07:09.299Z,100630.34
2018-11-02T00:09:37.378Z,100639.46
2018-11-02T00:12:05.827Z,100640.13
2018-11-02T00:14:33.865Z,100639.14
2018-11-02T00:17:02.010Z,100636.14
2018-11-02T00:19:32.035Z,100641.03
2018-11-02T00:22:01.636Z,100643.86
2018-11-02T00:24:30.027Z,100637.21
2018-11-02T00:26:58.839Z,100643.20
2018-11-02T00:29:26.979Z,100641.70
2018-11-02T00:31:55.151Z,100645.50
2018-11-02T00:34:23.164Z,100645.67
2018-11-02T00:36:51.315Z,100641.39
2018-11-02T00:39:19.407Z,100646.70
2018-11-02T00:41:47.508Z,100644.87
2018-11-02T00:44:15.737Z,100643.55
2018-11-02T00:46:43.772Z,100645.41
2018-11-02T00:49:11.888Z,100658.03
2018-11-02T00:51:40.008Z,100661.53
2018-11-02T00:54:08.129Z,100665.66
2018-11-02T00:56:36.251Z,100657.37
2018-11-02T00:59:04.444Z,100668.00
2018-11-02T01:01:32.620Z,100671.99
2018-11-02T01:04:00.871Z,100672.66
2018-11-02T01:06:29.809Z,100677.13
2018-11-02T01:08:58.085Z,100670.98
2018-11-02T01:11:26.187Z,100673.78
2018-11-02T01:13:54.295Z,100674.08
2018-11-02T01:16:22.431Z,100674.72
2018-11-02T01:18:50.597Z,100675.06
2018-11-02T01:21:18.724Z,100680.02
2018-11-02T01:23:46.903Z,100681.02
2018-11-02T01:26:15.020Z,100672.19
2018-11-02T01:28:43.224Z,100672.33
2018-11-02T01:31:11.356Z,100675.81
2018-11-02T01:33:39.811Z,100675.45
2018-11-02T01:36:09.507Z,100675.27
2018-11-02T01:38:37.924Z,100678.32
2018-11-02T01:41:06.506Z,100683.40
2018-11-02T01:43:34.626Z,100681.97
2018-11-02T01:46:02.857Z,100685.70
2018-11-02T01:48:31.059Z,100685.57
2018-11-02T01:50:59.159Z,100690.97
2018-11-02T01:53:27.565Z,100691.63
2018-11-02T01:55:55.660Z,100688.77
2018-11-02T01:58:23.840Z,100689.76
2018-11-02T02:00:52.016Z,100689.92
2018-11-02T02:03:20.161Z,100693.88
2018-11-02T02:05:48.270Z,100687.28
2018-11-02T02:08:16.403Z,100692.67
2018-11-02T02:10:44.516Z,100693.85
2018-11-02T02:13:12.660Z,100688.39
2018-11-02T02:15:40.812Z,100687.67
2018-11-02T02:18:08.952Z,100692.83
2018-11-02T02:20:37.212Z,100691.34
2018-11-02T02:23:05.327Z,100693.30
2018-11-02T02:25:33.415Z,100686.09
2018-11-02T02:28:01.570Z,100683.61
2018-11-02T02:30:29.636Z,100692.27
2018-11-02T02:32:57.715Z,100687.84
2018-11-02T02:35:25.833Z,100688.69
2018-11-02T02:37:53.927Z,100689.52
2018-11-02T02:40:22.012Z,100692.38
2018-11-02T02:42:50.112Z,100685.37
2018-11-02T02:45:18.228Z,100687.34
2018-11-02T02:47:46.320Z,100682.73
2018-11-02T02:50:14.931Z,100690.17
2018-11-02T02:52:43.950Z,100697.68
2018-11-02T02:55:12.044Z,100710.53
2018-11-02T02:57:40.204Z,100717.12
2018-11-02T03:00:10.324Z,100719.45
2018-11-02T03:02:38.559Z,100721.34
2018-11-02T03:05:06.689Z,100723.73
2018-11-02T03:07:34.852Z,100726.87
2018-11-02T03:10:02.975Z,100728.89
2018-11-02T03:12:31.123Z,100726.09
2018-11-02T03:14:59.232Z,100733.34
2018-11-02T03:17:27.339Z,100728.74
2018-11-02T03:19:55.465Z,100735.83
2018-11-02T03:22:23.644Z,100741.16
2018-11-02T03:24:51.693Z,100741.90
2018-11-02T03:27:19.907Z,100747.29
2018-11-02T03:29:48.079Z,100747.61
2018-11-02T03:32:16.220Z,100766.48
2018-11-02T03:34:44.344Z,100771.88
2018-11-02T03:37:12.475Z,100765.38
2018-11-02T03:39:40.579Z,100768.42
2018-11-02T03:42:08.672Z,100774.73
2018-11-02T03:44:36.986Z,100778.54
2018-11-02T03:47:05.104Z,100779.56
2018-11-02T03:49:33.592Z,100780.73
2018-11-02T03:52:01.675Z,100787.20
2018-11-02T03:54:29.772Z,100796.21
2018-11-02T03:56:57.978Z,100806.69
2018-11-02T03:59:26.133Z,100813.52
2018-11-02T04:01:54.215Z,100824.83
2018-11-02T04:04:22.339Z,100832.16
2018-11-02T04:06:50.446Z,100839.66
2018-11-02T04:09:18.597Z,100838.31
2018-11-02T04:11:46.727Z,100847.78
2018-11-02T04:14:14.823Z,100849.64
2018-11-02T04:16:42.943Z,100847.78
2018-11-02T04:19:11.061Z,100858.12
2018-11-02T04:21:45.684Z,100862.78
2018-11-02T04:24:13.822Z,100856.43
2018-11-02T04:26:41.945Z,100859.27
2018-11-02T04:29:11.162Z,100855.59
2018-11-02T04:31:39.241Z,100852.27
2018-11-02T04:34:07.403Z,100862.24
2018-11-02T04:36:35.500Z,100863.91
2018-11-02T04:39:03.629Z,100868.91
2018-11-02T04:41:32.059Z,100863.75
2018-11-02T04:44:00.315Z,100870.23
2018-11-02T04:46:28.588Z,100871.57
2018-11-02T04:48:56.729Z,100873.92
2018-11-02T04:51:24.827Z,100869.92
2018-11-02T04:53:55.741Z,100870.91
2018-11-02T04:56:24.725Z,100889.23
2018-11-02T04:58:52.887Z,100891.88
2018-11-02T05:01:21.659Z,100892.86
2018-11-02T05:03:49.930Z,100897.02
2018-11-02T05:06:18.080Z,100905.84
2018-11-02T05:08:46.271Z,100908.16
2018-11-02T05:11:14.895Z,100919.47
2018-11-02T05:13:43.171Z,100920.97
2018-11-02T05:16:11.299Z,100921.66
2018-11-02T05:18:39.403Z,100923.13
2018-11-02T05:21:08.428Z,100931.41
2018-11-02T05:23:36.981Z,100935.17
2018-11-02T05:26:05.478Z,100932.20
2018-11-02T05:28:33.961Z,100939.38
2018-11-02T05:31:02.187Z,100939.17
2018-11-02T05:33:30.307Z,100941.14
2018-11-02T05:35:58.658Z,100949.63
2018-11-02T05:38:26.760Z,100954.32
2018-11-02T05:40:54.856Z,100957.60
2018-11-02T05:43:22.986Z,100957.67
2018-11-02T05:45:51.212Z,100959.25
2018-11-02T05:48:19.344Z,100964.55
2018-11-02T05:50:47.432Z,100963.53
2018-11-02T05:53:15.746Z,100970.60
2018-11-02T05:55:43.836Z,100975.06
2018-11-02T05:58:11.979Z,100981.58
2018-11-02T06:00:40.211Z,100978.73
2018-11-02T06:03:08.316Z,100973.66
2018-11-02T06:05:36.448Z,100974.02
2018-11-02T06:08:04.887Z,100965.20
2018-11-02T06:10:33.542Z,100959.14
2018-11-02T06:13:01.776Z,100956.73
2018-11-02T06:15:29.927Z,100956.93
2018-11-02T06:17:58.031Z,100959.23
2018-11-02T06:20:26.326Z,100971.04
2018-11-02T06:22:54.399Z,100982.87
2018-11-02T06:25:22.489Z,100986.88
2018-11-02T06:27:50.568Z,100989.34
2018-11-02T06:30:18.676Z,100989.58
2018-11-02T06:32:46.819Z,100988.94
2018-11-02T06:35:14.894Z,100994.34
2018-11-02T06:37:42.985Z,101003.52
2018-11-02T06:40:11.110Z,101015.34
2018-11-02T06:42:39.193Z,101012.08
2018-11-02T06:45:08.442Z,101020.06
2018-11-02T06:47:36.495Z,101025.64
2018-11-02T06:50:04.776Z,101032.96
2018-11-02T06:52:32.878Z,101035.78
2018-11-02T06:55:00.997Z,101040.97
2018-11-02T06:57:29.096Z,101047.48
2018-11-02T06:59:57.436Z,101050.90
2018-11-02T07:02:25.943Z,101058.30
2018-11-02T07:04:54.119Z,101058.77
2018-11-02T07:07:22.276Z,101068.10
2018-11-02T07:09:50.415Z,101079.58
2018-11-02T07:12:18.574Z,101079.22
2018-11-02T07:14:46.740Z,101085.13
2018-11-02T07:17:14.897Z,101086.09
2018-11-02T07:19:43.005Z,101085.61
2018-11-02T07:22:11.082Z,101096.05
2018-11-02T07:24:39.218Z,101094.72
2018-11-02T07:27:07.343Z,101105.73
2018-11-02T07:29:35.451Z,101110.63
2018-11-02T07:32:03.587Z,101107.13
2018-11-02T07:34:32.234Z,101108.14
2018-11-02T07:37:00.205Z,101108.79
2018-11-02T07:39:30.318Z,101115.50
2018-11-02T07:41:58.443Z,101124.97
2018-11-02T07:44:26.656Z,101133.59
2018-11-02T07:46:54.832Z,101138.13
2018-11-02T07:49:22.977Z,101138.30
2018-11-02T07:51:51.094Z,101139.88
2018-11-02T07:54:19.215Z,101148.95
2018-11-02T07:56:47.312Z,101162.09
2018-11-02T07:59:15.673Z,101167.28
2018-11-02T08:01:43.839Z,101175.87
2018-11-02T08:04:11.846Z,101182.39
2018-11-02T08:06:40.599Z,101170.14
2018-11-02T08:09:10.071Z,101177.31
2018-11-02T08:11:38.289Z,101174.34
2018-11-02T08:14:06.522Z,101169.84
2018-11-02T08:16:34.697Z,101170.03
2018-11-02T08:19:02.855Z,101176.73
2018-11-02T08:21:30.960Z,101179.72
2018-11-02T08:23:59.078Z,101182.61
2018-11-02T08:26:27.256Z,101183.00
2018-11-02T08:28:55.459Z,101179.03
2018-11-02T08:31:23.581Z,101181.72
2018-11-02T08:33:51.687Z,101184.61
2018-11-02T08:36:19.776Z,101187.31
2018-11-02T08:38:47.915Z,101190.33
2018-11-02T08:41:16.339Z,101193.38
2018-11-02T08:43:44.464Z,101189.05
2018-11-02T08:46:12.547Z,101190.74
2018-11-02T08:48:41.604Z,101195.26
2018-11-02T08:51:09.681Z,101194.98
2018-11-02T08:53:37.782Z,101202.16
2018-11-02T08:56:06.331Z,101203.33
2018-11-02T08:58:34.606Z,101207.02
2018-11-02T09:01:02.695Z,101200.36
2018-11-02T09:03:30.895Z,101205.39
2018-11-02T09:05:59.050Z,101198.20
2018-11-02T09:08:27.177Z,101203.58
2018-11-02T09:10:55.355Z,101202.07
2018-11-02T09:13:23.560Z,101207.58
2018-11-02T09:15:51.680Z,101213.23
2018-11-02T09:18:19.973Z,101208.25
2018-11-02T09:20:48.007Z,101215.23
2018-11-02T09:23:16.458Z,101212.56
2018-11-02T09:25:44.589Z,101213.58
2018-11-02T09:28:12.757Z,101211.20
2018-11-02T09:30:40.828Z,101213.72
2018-11-02T09:33:08.949Z,101211.89
2018-11-02T09:35:37.075Z,101218.88
2018-11-02T09:38:05.423Z,101219.05
2018-11-02T09:40:33.660Z,101229.92
2018-11-02T09:43:01.702Z,101217.55
2018-11-02T09:45:29.835Z,101220.53
2018-11-02T09:47:57.924Z,101215.84
2018-11-02T09:50:26.042Z,101214.31
2018-11-02T09:52:54.163Z,101214.81
2018-11-02T09:55:22.302Z,101217.44
2018-11-02T09:57:50.463Z,101212.37
2018-11-02T10:00:18.759Z,101221.89
2018-11-02T10:02:47.007Z,101221.16
2018-11-02T10:05:15.132Z,101220.27
2018-11-02T10:07:43.234Z,101231.85
2018-11-02T10:10:12.150Z,101235.83
2018-11-02T10:12:40.271Z,101232.67
2018-11-02T10:15:11.651Z,101234.55
2018-11-02T10:17:39.829Z,101239.72
2018-11-02T10:20:08.299Z,101241.16
2018-11-02T10:22:36.659Z,101242.23
2018-11-02T10:25:04.868Z,101246.08
2018-11-02T10:27:33.129Z,101245.75
2018-11-02T10:30:01.308Z,101245.23
2018-11-02T10:32:29.443Z,101248.57
2018-11-02T10:34:57.571Z,101250.04
2018-11-02T10:37:25.686Z,101249.80
2018-11-02T10:39:53.904Z,101248.62
2018-11-02T10:42:21.994Z,101251.05
2018-11-02T10:44:50.120Z,101256.02
2018-11-02T10:47:18.250Z,101250.78
2018-11-02T10:49:46.363Z,101256.11
2018-11-02T10:52:14.472Z,101253.12
2018-11-02T10:54:42.678Z,101259.28
2018-11-02T10:57:10.680Z,101251.05
2018-11-02T10:59:38.779Z,101244.94
2018-11-02T11:02:07.501Z,101245.86
2018-11-02T11:04:36.085Z,101245.83
2018-11-02T11:07:04.351Z,101236.48
2018-11-02T11:09:32.501Z,101236.64
2018-11-02T11:12:00.639Z,101229.69
2018-11-02T11:14:29.024Z,101220.31
2018-11-02T11:16:57.197Z,101229.45
2018-11-02T11:19:26.780Z,101227.48
2018-11-02T11:21:54.998Z,101228.08
2018-11-02T11:24:23.168Z,101229.08
2018-11-02T11:26:51.679Z,101219.15
2018-11-02T11:29:19.865Z,101215.81
2018-11-02T11:31:47.928Z,101216.66
2018-11-02T11:34:16.039Z,101213.97
2018-11-02T11:36:44.148Z,101215.17
2018-11-02T11:39:21.084Z,101204.30
2018-11-02T11:41:49.180Z,101209.90
2018-11-02T11:44:17.323Z,101208.11
2018-11-02T11:46:45.427Z,101208.98
2018-11-02T11:49:13.591Z,101206.11
2018-11-02T11:51:41.632Z,101204.23
2018-11-02T11:54:09.760Z,101201.61
2018-11-02T11:56:37.879Z,101200.97
2018-11-02T11:59:06.046Z,101210.80
2018-11-02T12:01:34.154Z,101212.34
2018-11-02T12:04:02.250Z,101209.35
2018-11-02T12:06:30.373Z,101213.88
2018-11-02T12:08:58.464Z,101217.23
2018-11-02T12:11:26.585Z,101221.48
2018-11-02T12:13:54.677Z,101222.00
2018-11-02T12:16:22.809Z,101222.64
2018-11-02T12:18:50.926Z,101231.02
2018-11-02T12:21:19.011Z,101230.77
2018-11-02T12:23:47.108Z,101229.30
2018-11-02T12:26:15.207Z,101239.28
2018-11-02T12:28:43.373Z,101234.12
2018-11-02T12:31:11.443Z,101233.98
2018-11-02T12:33:39.679Z,101232.00
2018-11-02T12:36:07.829Z,101233.78
2018-11-02T12:38:36.889Z,101238.78
2018-11-02T12:41:08.100Z,101235.39
2018-11-02T12:43:36.450Z,101226.56
2018-11-02T12:46:05.953Z,101226.70
2018-11-02T12:48:35.097Z,101227.20
2018-11-02T12:51:03.885Z,101232.38
2018-11-02T12:53:35.261Z,101230.70
2018-11-02T12:56:06.308Z,101230.33
2018-11-02T12:58:35.815Z,101239.44
2018-11-02T13:01:09.125Z,101237.75
2018-11-02T13:03:40.423Z,101238.02
2018-11-02T13:06:10.536Z,101236.91
2018-11-02T13:08:40.320Z,101238.16
2018-11-02T13:11:10.120Z,101241.28
2018-11-02T13:13:38.692Z,101245.98
2018-11-02T13:16:08.639Z,101246.38
2018-11-02T13:18:37.594Z,101247.25
2018-11-02T13:21:32.184Z,101250.51
2018-11-02T13:24:01.468Z,101250.90
2018-11-02T13:26:34.787Z,101258.41
2018-11-02T13:29:04.120Z,101255.02
2018-11-02T13:31:34.256Z,101256.09
2018-11-02T13:34:08.932Z,101255.96
2018-11-02T13:36:37.214Z,101263.21
2018-11-02T13:39:08.411Z,101262.17
2018-11-02T13:41:36.536Z,101269.16
2018-11-02T13:45:14.519Z,101282.27
2018-11-02T13:47:43.199Z,101288.12
2018-11-02T13:50:11.779Z,101292.58
2018-11-02T13:52:40.140Z,101294.37
2018-11-02T13:55:08.924Z,101278.38
2018-11-02T13:57:37.044Z,101284.25
2018-11-02T14:00:06.897Z,101289.62
2018-11-02T14:02:34.916Z,101294.06
2018-11-02T14:05:03.124Z,101289.11
2018-11-02T14:07:31.295Z,101289.98
2018-11-02T14:09:59.398Z,101290.20
2018-11-02T14:12:27.497Z,101288.55
2018-11-02T14:14:55.587Z,101293.58
2018-11-02T14:17:23.695Z,101292.72
2018-11-02T14:19:51.851Z,101299.90
2018-11-02T14:22:19.940Z,101306.83
2018-11-02T14:24:48.032Z,101319.06
2018-11-02T14:27:16.128Z,101323.73
2018-11-02T14:29:44.211Z,101327.64
2018-11-02T14:32:12.321Z,101321.48
2018-11-02T14:34:40.464Z,101311.06
2018-11-02T14:37:08.543Z,101309.14
2018-11-02T14:39:38.504Z,101312.68
2018-11-02T14:42:10.743Z,101313.05
2018-11-02T14:44:41.591Z,101317.86
2018-11-02T14:47:11.716Z,101315.10
2018-11-02T14:49:41.094Z,101313.72
2018-11-02T14:52:14.531Z,101309.34
2018-11-02T14:54:45.365Z,101315.77
2018-11-02T14:57:14.711Z,101315.10
2018-11-02T14:59:45.418Z,101320.61
2018-11-02T15:02:13.640Z,101325.17
2018-11-02T15:04:43.023Z,101325.28
2018-11-02T15:07:13.135Z,101326.88
2018-11-02T15:09:48.765Z,101329.57
2018-11-02T15:12:20.304Z,101333.09
2018-11-02T15:17:38.260Z,101338.59
2018-11-02T15:20:14.390Z,101338.02
2018-11-02T15:22:45.530Z,101334.23
2018-11-02T15:25:18.568Z,101346.58
2018-11-02T15:27:48.099Z,101351.25
2018-11-02T15:30:18.386Z,101340.12
2018-11-02T15:32:47.789Z,101354.09
2018-11-02T15:35:18.655Z,101350.41
2018-11-02T15:37:51.712Z,101356.83
2018-11-02T15:40:22.240Z,101364.30
2018-11-02T15:42:54.780Z,101364.16
2018-11-02T15:45:27.918Z,101365.75
2018-11-02T15:48:01.672Z,101369.17
2018-11-02T15:50:36.428Z,101379.13
2018-11-02T15:53:04.589Z,101374.78
2018-11-02T15:55:32.667Z,101382.67
2018-11-02T15:58:00.871Z,101386.66
2018-11-02T16:00:29.080Z,101390.90
2018-11-02T16:03:03.746Z,101385.38
2018-11-02T16:05:31.914Z,101386.66
2018-11-02T16:08:00.023Z,101387.12
2018-11-02T16:10:28.204Z,101402.03
2018-11-02T16:12:56.340Z,101408.84
2018-11-02T16:15:24.655Z,101412.39
2018-11-02T16:17:52.843Z,101420.03
2018-11-02T16:20:20.976Z,101424.62
2018-11-02T16:22:49.127Z,101430.92
2018-11-02T16:25:17.275Z,101434.09
2018-11-02T16:27:46.338Z,101437.48
2018-11-02T16:30:14.568Z,101439.47
2018-11-02T16:32:42.511Z,101444.68
2018-11-02T16:35:11.380Z,101454.92
2018-11-02T16:37:39.567Z,101471.76
2018-11-02T16:40:10.536Z,101473.67
2018-11-02T16:42:38.650Z,101474.97
2018-11-02T16:45:08.439Z,101485.17
2018-11-02T16:47:36.911Z,101494.56
2018-11-02T16:50:05.215Z,101497.63
2018-11-02T16:52:33.359Z,101499.27
2018-11-02T16:55:01.469Z,101505.48
2018-11-02T16:57:29.665Z,101511.97
2018-11-02T16:59:57.799Z,101518.45
2018-11-02T17:02:26.258Z,101521.64
2018-11-02T17:04:54.479Z,101526.28
2018-11-02T17:07:22.562Z,101532.37
2018-11-02T17:09:50.769Z,101530.77
2018-11-02T17:12:18.840Z,101539.47
2018-11-02T17:14:46.968Z,101554.22
2018-11-02T17:17:15.067Z,101557.32
2018-11-02T17:19:43.154Z,101557.86
2018-11-02T17:22:11.480Z,101566.50
2018-11-02T17:24:39.583Z,101570.05
2018-11-02T17:27:07.678Z,101567.72
2018-11-02T17:29:35.770Z,101576.97
2018-11-02T17:32:03.931Z,101579.63
2018-11-02T17:34:32.072Z,101576.31
2018-11-02T17:37:00.181Z,101577.17
2018-11-02T17:39:28.301Z,101580.56
2018-11-02T17:41:56.460Z,101584.74
2018-11-02T17:44:24.601Z,101582.90
2018-11-02T17:46:52.721Z,101597.95
2018-11-02T17:49:20.859Z,101598.81
2018-11-02T17:51:49.071Z,101602.47
2018-11-02T17:54:17.174Z,101594.13
2018-11-02T17:56:45.267Z,101600.47
2018-11-02T17:59:13.376Z,101597.80
2018-11-02T18:01:42.597Z,101601.98
2018-11-02T18:04:10.727Z,101607.35
2018-11-02T18:06:38.892Z,101599.98
2018-11-02T18:09:09.048Z,101603.19
2018-11-02T18:11:37.405Z,101600.16
2018-11-02T18:14:05.564Z,101608.38
2018-11-02T18:16:33.723Z,101608.05
2018-11-02T18:19:01.967Z,101609.21
2018-11-02T18:21:30.093Z,101607.53
2018-11-02T18:23:59.683Z,101607.55
2018-11-02T18:26:28.717Z,101604.04
2018-11-02T18:28:57.599Z,101609.53
2018-11-02T18:31:25.873Z,101607.70
2018-11-02T18:33:56.346Z,101614.08
2018-11-02T18:36:27.644Z,101618.59
2018-11-02T18:38:56.932Z,101619.43
2018-11-02T18:41:26.059Z,101628.27
2018-11-02T18:43:54.510Z,101631.77
2018-11-02T18:46:22.912Z,101632.27
2018-11-02T18:48:51.755Z,101641.33
2018-11-02T18:51:21.796Z,101642.29
2018-11-02T18:53:50.405Z,101634.91
2018-11-02T18:56:18.679Z,101644.48
2018-11-02T18:58:48.805Z,101647.31
2018-11-02T19:01:18.259Z,101650.09
2018-11-02T19:03:47.109Z,101661.28
2018-11-02T19:06:16.827Z,101667.20
2018-11-02T19:08:49.295Z,101669.73
2018-11-02T19:11:18.533Z,101669.17
2018-11-02T19:13:47.166Z,101680.22
2018-11-02T19:16:15.600Z,101680.31
2018-11-02T19:18:47.729Z,101681.34
2018-11-02T19:21:17.961Z,101682.62
2018-11-02T19:23:46.668Z,101673.29
2018-11-02T19:26:15.047Z,101672.70
2018-11-02T19:28:43.772Z,101675.40
2018-11-02T19:31:12.888Z,101676.77
2018-11-02T19:33:42.100Z,101681.05
2018-11-02T19:36:10.550Z,101684.98
2018-11-02T19:38:39.990Z,101690.34
2018-11-02T19:41:10.326Z,101699.27
2018-11-02T19:43:38.767Z,101704.09
2018-11-02T19:46:07.985Z,101707.42
2018-11-02T19:48:39.254Z,101711.95
2018-11-02T19:51:07.940Z,101718.67
2018-11-02T19:53:38.030Z,101721.20
2018-11-02T19:56:06.720Z,101729.77
2018-11-02T19:58:35.451Z,101729.33
2018-11-02T20:01:05.792Z,101737.66
2018-11-02T20:03:34.070Z,101748.09
2018-11-02T20:06:09.334Z,101754.48
2018-11-02T20:08:37.609Z,101760.98
2018-11-02T20:11:06.607Z,101759.73
2018-11-02T20:13:36.236Z,101756.94
2018-11-02T20:16:04.941Z,101756.05
2018-11-02T20:18:33.505Z,101761.02
2018-11-02T20:21:02.360Z,101766.03
2018-11-02T20:23:30.760Z,101761.14
2018-11-02T20:25:59.008Z,101757.30
2018-11-02T20:28:28.159Z,101766.93
2018-11-02T20:30:56.694Z,101763.41
2018-11-02T20:33:24.990Z,101764.09
2018-11-02T20:35:53.596Z,101764.17
2018-11-02T20:38:22.474Z,101773.16
2018-11-02T20:40:51.086Z,101780.99
2018-11-02T20:43:21.000Z,101776.79
2018-11-02T20:45:52.446Z,101776.83
2018-11-02T20:48:21.069Z,101777.55
2018-11-02T20:50:50.143Z,101772.47
2018-11-02T20:53:18.776Z,101771.97
2018-11-02T20:55:47.429Z,101773.19
2018-11-02T20:58:15.731Z,101772.34
2018-11-02T21:00:45.132Z,101781.20
2018-11-02T21:03:14.362Z,101781.12
2018-11-02T21:05:44.057Z,101784.48
2018-11-02T21:08:13.329Z,101787.98
2018-11-02T21:10:42.088Z,101787.59
2018-11-02T21:13:10.689Z,101793.84
2018-11-02T21:15:39.618Z,101792.25
2018-11-02T21:18:08.285Z,101786.92
2018-11-02T21:20:39.826Z,101785.87
2018-11-02T21:23:09.346Z,101787.91
2018-11-02T21:25:43.322Z,101798.73
2018-11-02T21:28:13.090Z,101792.12
2018-11-02T21:30:43.360Z,101794.45
2018-11-02T21:33:11.622Z,101798.34
2018-11-02T21:35:40.328Z,101809.11
2018-11-02T21:41:21.114Z,101810.00
2018-11-02T21:43:53.424Z,101809.70
2018-11-02T21:46:22.936Z,101806.63
2018-11-02T21:48:51.480Z,101812.01
2018-11-02T21:51:20.705Z,101814.09
2018-11-02T21:53:50.022Z,101825.30
2018-11-02T21:56:19.587Z,101826.87
2018-11-02T21:58:48.223Z,101823.76
2018-11-02T22:01:17.157Z,101829.23
2018-11-02T22:03:46.160Z,101824.27
2018-11-02T22:06:14.868Z,101825.23
2018-11-02T22:08:44.276Z,101820.45
2018-11-02T22:11:12.879Z,101817.81
2018-11-02T22:13:42.025Z,101814.74
2018-11-02T22:16:13.580Z,101819.16
2018-11-02T22:18:42.065Z,101817.08
2018-11-02T22:21:10.641Z,101818.72
2018-11-02T22:23:39.003Z,101816.34
2018-11-02T22:26:07.784Z,101819.16
2018-11-02T22:28:36.290Z,101821.17
2018-11-02T22:31:05.434Z,101824.77
2018-11-02T22:33:35.581Z,101822.14
2018-11-02T22:36:05.554Z,101817.16
2018-11-02T22:38:37.357Z,101817.95
2018-11-02T22:41:05.916Z,101824.23
2018-11-02T22:43:34.389Z,101819.56
2018-11-02T22:46:04.401Z,101826.93
2018-11-02T22:48:32.958Z,101820.09
2018-11-02T22:51:01.356Z,101823.55
2018-11-02T22:53:30.563Z,101823.70
2018-11-02T22:56:00.252Z,101830.26
2018-11-02T22:58:32.447Z,101826.17
2018-11-02T23:01:06.187Z,101832.33
2018-11-02T23:03:34.897Z,101826.29
2018-11-02T23:06:04.652Z,101831.42
2018-11-02T23:08:33.710Z,101834.78
2018-11-02T23:11:02.650Z,101832.63
2018-11-02T23:13:30.895Z,101831.38
2018-11-02T23:15:59.178Z,101838.26
2018-11-02T23:18:30.508Z,101835.53
2018-11-02T23:20:59.064Z,101844.83
2018-11-02T23:23:28.321Z,101837.59
2018-11-02T23:25:57.112Z,101847.95
2018-11-02T23:28:25.695Z,101831.76
2018-11-02T23:30:54.977Z,101840.39
2018-11-02T23:33:24.091Z,101831.44
2018-11-02T23:35:54.466Z,101830.42
2018-11-02T23:38:23.694Z,101839.73
2018-11-02T23:40:52.067Z,101846.61
2018-11-02T23:45:56.909Z,101843.55
2018-11-02T23:48:26.837Z,101840.63
2018-11-02T23:50:55.670Z,101829.54
2018-11-02T23:53:24.243Z,101832.84
2018-11-02T23:56:07.883Z,101829.31
2018-11-02T23:58:42.215Z,101829.13
